Time;durP1;ratioP1;P1;durP2;ratioP2;P2;SDS_P1;SDS_P2;PMS_P1;PMS_P2;Temp;Humidity;BMP_temperature;BMP_pressure;BME280_temperature;BME280_humidity;BME280_pressure;Samples;Min_cycle;Max_cycle;Signal;HPM_P1;HPM_P2
2024/01/25 00:02:00;;;;;;;0.80;0.75;;;19.10;38.90;;;;;;8364798;28;20036;-54
2024/01/25 00:06:00;;;;;;;2.35;0.55;;;18.90;39.70;;;;;;8364561;28;20033;-54
2024/01/25 00:10:01;;;;;;;1.10;0.60;;;18.90;39.80;;;;;;8364362;28;20116;-54
2024/01/25 00:14:02;;;;;;;0.70;0.52;;;18.90;39.50;;;;;;8364011;28;20037;-53
2024/01/25 00:18:03;;;;;;;;;;;19.00;39.10;;;;;;8364702;28;20112;-54
2024/01/25 00:22:04;;;;;;;0.50;0.43;;;19.00;38.90;;;;;;8364458;28;19913;-52
2024/01/25 00:26:05;;;;;;;1.35;0.60;;;19.00;38.70;;;;;;8363723;28;20524;-53
2024/01/25 00:30:06;;;;;;;2.42;0.63;;;19.10;39.10;;;;;;8363953;28;20120;-54
2024/01/25 00:34:07;;;;;;;;;;;19.10;38.40;;;;;;8364308;28;20115;-54
2024/01/25 00:38:08;;;;;;;0.83;0.67;;;19.10;38.30;;;;;;8362445;28;19913;-53
2024/01/25 00:42:12;;;;;;;0.65;0.65;;;19.10;38.30;;;;;;8363702;28;20060;-54
2024/01/25 00:46:14;;;;;;;1.17;0.63;;;19.10;38.20;;;;;;8363539;28;20025;-54
2024/01/25 00:50:17;;;;;;;1.00;0.50;;;19.10;38.90;;;;;;8363725;28;20029;-53
2024/01/25 00:54:18;;;;;;;1.02;0.70;;;18.90;39.60;;;;;;8363142;28;20114;-52
2024/01/25 00:58:19;;;;;;;1.13;0.50;;;18.80;39.70;;;;;;8363293;28;20025;-53
2024/01/25 01:02:22;;;;;;;1.70;0.77;;;18.80;39.30;;;;;;8363049;28;20033;-52
2024/01/25 01:06:23;;;;;;;1.25;0.63;;;18.90;39.00;;;;;;8362906;28;20486;-54
2024/01/25 01:10:23;;;;;;;0.85;0.52;;;18.90;38.70;;;;;;8362631;28;20040;-53
2024/01/25 01:14:24;;;;;;;0.82;0.50;;;19.00;38.60;;;;;;8362677;28;20095;-55
2024/01/25 01:18:25;;;;;;;0.93;0.63;;;19.00;38.50;;;;;;8362503;28;20086;-53
2024/01/25 01:22:25;;;;;;;1.77;0.60;;;19.00;38.40;;;;;;8362424;28;20021;-54
2024/01/25 01:26:26;;;;;;;0.77;0.50;;;19.00;38.30;;;;;;8361612;28;20063;-54
2024/01/25 01:30:27;;;;;;;0.90;0.50;;;19.00;38.20;;;;;;8362056;28;20029;-53
2024/01/25 01:34:27;;;;;;;0.40;0.40;;;19.00;38.10;;;;;;8362079;28;20025;-53
2024/01/25 01:38:28;;;;;;;0.70;0.70;;;19.00;38.90;;;;;;8360757;28;20271;-54
2024/01/25 01:42:32;;;;;;;0.90;0.50;;;18.80;39.60;;;;;;8361781;28;20033;-54
2024/01/25 01:46:36;;;;;;;0.60;0.60;;;18.80;39.50;;;;;;8362145;28;20060;-52
2024/01/25 01:50:38;;;;;;;0.50;0.50;;;18.90;39.20;;;;;;8361575;28;20094;-54
2024/01/25 01:54:39;;;;;;;0.55;0.40;;;18.90;38.90;;;;;;8360132;28;20124;-54
2024/01/25 01:58:39;;;;;;;0.52;0.38;;;19.00;38.70;;;;;;8361277;28;20036;-54
2024/01/25 02:02:40;;;;;;;0.90;0.50;;;19.00;38.50;;;;;;8361417;28;20062;-54
2024/01/25 02:06:42;;;;;;;1.05;0.50;;;19.00;38.30;;;;;;8360995;28;20037;-54
2024/01/25 02:10:43;;;;;;;0.65;0.55;;;19.00;38.30;;;;;;8360811;28;20406;-53
2024/01/25 02:14:44;;;;;;;0.70;0.60;;;19.00;38.20;;;;;;8360955;28;20037;-54
2024/01/25 02:18:45;;;;;;;0.50;0.30;;;19.00;38.10;;;;;;8360706;28;20033;-53
2024/01/25 02:22:47;;;;;;;1.73;0.80;;;19.00;38.00;;;;;;8360923;28;20055;-54
2024/01/25 02:26:47;;;;;;;0.52;0.52;;;18.90;39.00;;;;;;8360422;28;20041;-54
2024/01/25 02:30:48;;;;;;;0.63;0.63;;;18.80;39.60;;;;;;8360200;28;20037;-53
2024/01/25 02:34:49;;;;;;;0.47;0.47;;;18.80;39.40;;;;;;8360274;28;20111;-54
2024/01/25 02:38:49;;;;;;;0.30;0.30;;;18.80;39.10;;;;;;8359902;28;20024;-54
2024/01/25 02:42:50;;;;;;;0.57;0.57;;;18.90;38.80;;;;;;8360191;28;20884;-54
2024/01/25 02:46:51;;;;;;;0.52;0.40;;;18.90;38.50;;;;;;8360031;28;20279;-54
2024/01/25 02:50:51;;;;;;;0.85;0.55;;;18.90;38.40;;;;;;8359724;28;20029;-53
2024/01/25 02:54:52;;;;;;;0.40;0.40;;;19.00;38.40;;;;;;8359891;28;20060;-53
2024/01/25 02:58:53;;;;;;;0.45;0.40;;;19.00;38.20;;;;;;8359959;28;20159;-52
2024/01/25 03:02:54;;;;;;;0.40;0.40;;;19.00;38.10;;;;;;8359798;28;20065;-54
2024/01/25 03:06:55;;;;;;;0.60;0.50;;;19.00;38.00;;;;;;8359574;28;20071;-53
2024/01/25 03:10:56;;;;;;;0.77;0.50;;;19.00;38.00;;;;;;8359767;28;20114;-53
2024/01/25 03:14:57;;;;;;;0.52;0.47;;;18.90;38.90;;;;;;8359450;28;20075;-54
2024/01/25 03:18:58;;;;;;;0.50;0.40;;;18.70;39.50;;;;;;8359802;28;20033;-53
2024/01/25 03:22:58;;;;;;;1.48;0.47;;;18.70;39.30;;;;;;8359396;28;20330;-49
2024/01/25 03:26:59;;;;;;;0.60;0.50;;;18.80;39.00;;;;;;8359383;28;20037;-49
2024/01/25 03:31:00;;;;;;;0.70;0.50;;;18.80;38.60;;;;;;8359235;28;20299;-49
2024/01/25 03:35:01;;;;;;;0.88;0.30;;;18.90;38.50;;;;;;8359254;28;20041;-49
2024/01/25 03:39:02;;;;;;;0.40;0.30;;;18.90;38.30;;;;;;8358997;28;20036;-51
2024/01/25 03:43:03;;;;;;;0.40;0.40;;;18.90;38.20;;;;;;8358836;28;20167;-49
2024/01/25 03:47:04;;;;;;;0.57;0.40;;;19.00;38.10;;;;;;8359046;28;20045;-47
2024/01/25 03:51:05;;;;;;;1.33;0.47;;;19.00;38.00;;;;;;8364159;28;20044;-49
2024/01/25 03:55:07;;;;;;;0.55;0.55;;;19.00;38.00;;;;;;8365205;28;20391;-49
2024/01/25 03:59:10;;;;;;;0.70;0.30;;;19.00;37.80;;;;;;8364773;28;20033;-47
2024/01/25 04:03:11;;;;;;;0.50;0.40;;;18.90;38.90;;;;;;8364802;28;20083;-49
2024/01/25 04:07:12;;;;;;;0.57;0.30;;;18.80;39.50;;;;;;8363561;28;20052;-51
2024/01/25 04:11:13;;;;;;;1.17;0.70;;;18.80;39.20;;;;;;8365637;28;20033;-50
2024/01/25 04:15:14;;;;;;;0.65;0.50;;;18.80;38.80;;;;;;8364421;28;20275;-48
2024/01/25 04:19:14;;;;;;;0.88;0.70;;;18.80;38.50;;;;;;8364208;28;20037;-50
2024/01/25 04:23:15;;;;;;;0.30;0.30;;;18.90;38.40;;;;;;8364319;28;20094;-51
2024/01/25 04:27:16;;;;;;;0.50;0.50;;;18.90;38.70;;;;;;8365230;28;20086;-52
2024/01/25 04:31:17;;;;;;;0.47;0.35;;;18.90;38.10;;;;;;8363964;28;20029;-49
2024/01/25 04:35:18;;;;;;;1.25;0.32;;;18.90;38.00;;;;;;8363857;28;20037;-52
2024/01/25 04:39:18;;;;;;;0.88;0.60;;;19.00;37.90;;;;;;8363804;28;20032;-53
2024/01/25 04:43:19;;;;;;;1.23;0.30;;;19.00;37.80;;;;;;8363524;28;20083;-54
2024/01/25 04:47:20;;;;;;;0.50;0.40;;;19.00;37.80;;;;;;8363636;28;20163;-52
2024/01/25 04:51:22;;;;;;;0.47;0.47;;;18.80;38.80;;;;;;8363156;28;20788;-54
2024/01/25 04:55:23;;;;;;;0.52;0.35;;;18.70;39.40;;;;;;8363338;28;20521;-52
2024/01/25 04:59:23;;;;;;;0.20;0.20;;;18.80;39.10;;;;;;8362207;28;20383;-53
2024/01/25 05:03:24;;;;;;;1.25;0.57;;;18.80;38.80;;;;;;8362458;28;20546;-53
2024/01/25 05:07:25;;;;;;;0.38;0.30;;;18.80;38.50;;;;;;8363126;28;20059;-53
2024/01/25 05:11:25;;;;;;;1.05;0.45;;;18.90;38.30;;;;;;8363126;28;20037;-53
2024/01/25 05:15:26;;;;;;;0.50;0.50;;;18.90;38.10;;;;;;8362503;28;20025;-53
2024/01/25 05:19:27;;;;;;;0.40;0.30;;;18.90;37.90;;;;;;8362742;28;20068;-51
2024/01/25 05:23:28;;;;;;;0.30;0.30;;;19.00;37.80;;;;;;8362313;28;20425;-54
2024/01/25 05:27:28;;;;;;;0.38;0.30;;;19.00;38.20;;;;;;8362015;28;20090;-54
2024/01/25 05:31:29;;;;;;;0.30;0.30;;;19.00;37.60;;;;;;8363136;28;20029;-54
2024/01/25 05:35:30;;;;;;;0.50;0.40;;;19.10;37.50;;;;;;8361923;28;20036;-54
2024/01/25 05:39:30;;;;;;;0.50;0.47;;;18.90;38.70;;;;;;8361614;28;20029;-53
2024/01/25 05:43:32;;;;;;;0.40;0.40;;;18.90;39.00;;;;;;8361676;28;20452;-53
2024/01/25 05:47:34;;;;;;;0.35;0.35;;;18.90;38.70;;;;;;8361751;28;20561;-54
2024/01/25 05:51:35;;;;;;;0.40;0.40;;;18.90;38.30;;;;;;8361470;28;20076;-53
2024/01/25 05:55:36;;;;;;;;;;;19.00;38.10;;;;;;8361703;28;20044;-54
2024/01/25 05:59:37;;;;;;;0.50;0.30;;;19.00;37.90;;;;;;8361558;28;19909;-54
2024/01/25 06:03:37;;;;;;;0.30;0.30;;;19.00;37.80;;;;;;8361062;28;20495;-52
2024/01/25 06:07:38;;;;;;;0.38;0.30;;;19.00;37.60;;;;;;8359609;28;20421;-54
2024/01/25 06:11:39;;;;;;;0.35;0.35;;;19.10;37.70;;;;;;8360223;28;20036;-51
2024/01/25 06:15:39;;;;;;;0.30;0.30;;;19.10;37.50;;;;;;8359683;28;20036;-53
2024/01/25 06:19:40;;;;;;;0.82;0.40;;;19.10;37.50;;;;;;8360499;28;20302;-54
2024/01/25 06:23:41;;;;;;;0.82;0.28;;;19.10;37.60;;;;;;8360643;28;20060;-54
2024/01/25 06:27:41;;;;;;;0.68;0.30;;;18.90;38.70;;;;;;8360373;28;20379;-54
2024/01/25 06:31:43;;;;;;;0.25;0.25;;;18.80;39.00;;;;;;8360262;28;20048;-53
2024/01/25 06:35:44;;;;;;;0.68;0.40;;;18.90;38.70;;;;;;8358939;28;20033;-54
2024/01/25 06:39:45;;;;;;;0.47;0.40;;;18.90;38.30;;;;;;8360165;28;20471;-54
2024/01/25 06:43:45;;;;;;;0.38;0.32;;;19.00;38.00;;;;;;8359972;28;20064;-54
2024/01/25 06:47:46;;;;;;;0.32;0.30;;;19.00;37.80;;;;;;8360010;28;20033;-53
2024/01/25 06:51:47;;;;;;;0.70;0.35;;;19.10;37.70;;;;;;8360133;28;20072;-54
2024/01/25 06:55:47;;;;;;;0.75;0.30;;;19.10;37.60;;;;;;8359829;28;20043;-53
2024/01/25 06:59:48;;;;;;;0.40;0.20;;;19.10;37.50;;;;;;8359682;28;20033;-51
2024/01/25 07:03:52;;;;;;;0.20;0.20;;;19.10;37.40;;;;;;8359861;28;20408;-50
2024/01/25 07:07:53;;;;;;;0.47;0.30;;;19.10;37.30;;;;;;8359432;28;20076;-54
2024/01/25 07:11:53;;;;;;;0.57;0.50;;;19.10;37.70;;;;;;8358520;28;20026;-52
2024/01/25 07:15:54;;;;;;;0.30;0.30;;;19.00;38.80;;;;;;8359615;28;20445;-50
2024/01/25 07:19:55;;;;;;;1.73;0.43;;;18.90;38.90;;;;;;8359757;28;20321;-51
2024/01/25 07:23:55;;;;;;;0.38;0.30;;;18.90;38.50;;;;;;8361478;28;20744;-54
2024/01/25 07:27:56;;;;;;;0.30;0.30;;;18.90;38.20;;;;;;8365874;28;20495;-53
2024/01/25 07:31:57;;;;;;;0.30;0.30;;;19.00;37.90;;;;;;8366174;28;20039;-53
2024/01/25 07:35:58;;;;;;;0.47;0.40;;;19.10;37.80;;;;;;8365939;28;20487;-51
2024/01/25 07:39:59;;;;;;;0.30;0.30;;;19.10;37.60;;;;;;8365502;28;20490;-51
2024/01/25 07:44:00;;;;;;;0.32;0.30;;;19.10;37.50;;;;;;8365715;28;20453;-53
2024/01/25 07:48:01;;;;;;;0.60;0.50;;;19.10;37.40;;;;;;8365439;28;20176;-51
2024/01/25 07:52:01;;;;;;;1.08;0.68;;;19.10;37.30;;;;;;8365262;28;20039;-53
2024/01/25 07:56:02;;;;;;;0.30;0.30;;;19.10;37.30;;;;;;8365172;28;20379;-53
2024/01/25 08:00:04;;;;;;;0.73;0.40;;;19.10;37.70;;;;;;8365032;28;20057;-52
2024/01/25 08:04:05;;;;;;;0.30;0.30;;;19.00;38.60;;;;;;8365067;28;20041;-53
2024/01/25 08:08:06;;;;;;;0.20;0.20;;;18.90;38.70;;;;;;8364710;28;20061;-54
2024/01/25 08:12:06;;;;;;;1.67;0.35;;;18.90;38.40;;;;;;8364802;28;20037;-52
2024/01/25 08:16:10;;;;;;;0.30;0.30;;;19.00;38.00;;;;;;8364657;28;20029;-54
2024/01/25 08:20:14;;;;;;;0.30;0.30;;;19.00;37.80;;;;;;8364305;28;20031;-53
2024/01/25 08:24:15;;;;;;;0.30;0.30;;;19.10;37.70;;;;;;8364883;28;20044;-53
2024/01/25 08:28:16;;;;;;;0.30;0.30;;;19.10;37.50;;;;;;8364271;28;20037;-54
2024/01/25 08:32:16;;;;;;;1.92;0.28;;;19.10;37.40;;;;;;8364206;28;20463;-51
2024/01/25 08:36:18;;;;;;;0.20;0.20;;;19.10;37.30;;;;;;8363751;28;20029;-52
2024/01/25 08:40:20;;;;;;;0.22;0.22;;;19.10;37.30;;;;;;8363604;28;20395;-54
2024/01/25 08:44:20;;;;;;;0.80;0.50;;;19.10;37.20;;;;;;8364502;28;20120;-52
2024/01/25 08:48:21;;;;;;;0.20;0.20;;;19.10;37.90;;;;;;8363891;28;20041;-54
2024/01/25 08:52:22;;;;;;;0.43;0.43;;;19.00;38.70;;;;;;8363393;28;20033;-55
2024/01/25 08:56:22;;;;;;;0.30;0.30;;;18.90;38.70;;;;;;8363341;28;20651;-53
2024/01/25 09:00:23;;;;;;;0.38;0.20;;;18.90;38.40;;;;;;8363425;28;20048;-53
2024/01/25 09:04:24;;;;;;;0.22;0.22;;;19.00;38.10;;;;;;8362972;28;20041;-53
2024/01/25 09:08:25;;;;;;;1.13;0.40;;;19.00;37.80;;;;;;8362920;28;20057;-54
2024/01/25 09:12:25;;;;;;;0.45;0.40;;;19.10;37.70;;;;;;8363122;28;20060;-54
2024/01/25 09:16:26;;;;;;;0.30;0.30;;;19.10;37.50;;;;;;8362720;28;20433;-53
2024/01/25 09:20:27;;;;;;;0.22;0.20;;;19.10;37.40;;;;;;8362629;28;20025;-51
2024/01/25 09:24:27;;;;;;;0.43;0.33;;;19.10;37.30;;;;;;8362420;28;20394;-54
2024/01/25 09:28:28;;;;;;;0.47;0.40;;;19.10;37.20;;;;;;8362098;28;20338;-54
2024/01/25 09:32:29;;;;;;;0.30;0.30;;;19.10;37.20;;;;;;8362380;28;20311;-53
2024/01/25 09:36:30;;;;;;;0.30;0.30;;;19.10;37.90;;;;;;8362022;28;20040;-52
2024/01/25 09:40:30;;;;;;;0.30;0.30;;;18.90;38.60;;;;;;8361969;28;20037;-54
2024/01/25 09:44:31;;;;;;;0.22;0.20;;;18.90;38.60;;;;;;8361749;28;20040;-52
2024/01/25 09:48:33;;;;;;;0.30;0.30;;;18.90;38.30;;;;;;8361065;28;20548;-55
2024/01/25 09:52:35;;;;;;;0.35;0.35;;;19.00;37.90;;;;;;8361529;28;20441;-52
2024/01/25 09:56:36;;;;;;;0.20;0.20;;;19.00;37.70;;;;;;8361492;28;20025;-54
2024/01/25 10:00:37;;;;;;;0.70;0.30;;;19.10;37.60;;;;;;8361072;28;20044;-53
2024/01/25 10:04:38;;;;;;;0.32;0.30;;;19.10;37.40;;;;;;8359997;28;20029;-52
2024/01/25 10:08:38;;;;;;;0.20;0.20;;;19.10;37.30;;;;;;8360789;28;20414;-54
2024/01/25 10:12:42;;;;;;;0.30;0.30;;;19.10;37.30;;;;;;8360765;28;20041;-53
2024/01/25 10:16:45;;;;;;;0.25;0.22;;;19.10;37.10;;;;;;8360809;28;20630;-55
2024/01/25 10:20:45;;;;;;;0.30;0.30;;;19.20;37.10;;;;;;8360750;28;20060;-52
2024/01/25 10:24:46;;;;;;;0.30;0.30;;;19.10;38.00;;;;;;8360517;28;20087;-51
2024/01/25 10:28:52;;;;;;;0.32;0.30;;;19.00;38.60;;;;;;8360562;28;20083;-53
2024/01/25 10:32:54;;;;;;;0.28;0.20;;;18.90;38.50;;;;;;8360461;28;20037;-51
2024/01/25 10:36:55;;;;;;;0.88;0.35;;;18.90;38.10;;;;;;8360299;28;20376;-53
2024/01/25 10:40:58;;;;;;;;;;;19.00;38.00;;;;;;8360576;28;20037;-50
2024/01/25 10:44:58;;;;;;;0.15;0.15;;;19.10;37.70;;;;;;8360044;28;19959;-51
2024/01/25 10:49:00;;;;;;;0.20;0.20;;;19.10;37.50;;;;;;8360232;28;20033;-51
2024/01/25 10:53:02;;;;;;;0.30;0.30;;;19.10;37.40;;;;;;8359692;28;20033;-52
2024/01/25 10:57:05;;;;;;;0.30;0.30;;;19.10;37.30;;;;;;8359676;28;20120;-53
2024/01/25 11:01:10;;;;;;;0.30;0.30;;;19.10;37.20;;;;;;8359674;28;20033;-51
2024/01/25 11:05:16;;;;;;;0.30;0.30;;;19.20;37.20;;;;;;8359816;28;20036;-53
2024/01/25 11:09:19;;;;;;;0.20;0.20;;;19.20;37.10;;;;;;8359345;28;20132;-52
2024/01/25 11:13:26;;;;;;;0.28;0.20;;;19.10;38.00;;;;;;8359903;28;20375;-53
2024/01/25 11:17:31;;;;;;;0.30;0.30;;;18.90;38.60;;;;;;8359464;28;20025;-54
2024/01/25 11:21:42;;;;;;;0.30;0.30;;;18.90;38.40;;;;;;8359812;28;20049;-51
2024/01/25 11:25:46;;;;;;;0.20;0.20;;;19.00;38.00;;;;;;8359336;28;20371;-53
2024/01/25 11:29:47;;;;;;;0.30;0.30;;;19.00;37.70;;;;;;8359739;28;20033;-53
2024/01/25 11:33:49;;;;;;;0.30;0.30;;;19.00;37.60;;;;;;8359234;28;20130;-53
2024/01/25 11:37:51;;;;;;;;;;;19.10;37.40;;;;;;8359895;28;20040;-53
2024/01/25 11:41:54;;;;;;;0.30;0.30;;;19.10;37.30;;;;;;8359002;28;19905;-53
2024/01/25 11:45:54;;;;;;;0.30;0.30;;;19.10;37.20;;;;;;8359041;28;20047;-54
2024/01/25 11:49:55;;;;;;;0.43;0.40;;;19.10;37.10;;;;;;8358969;28;20037;-53
2024/01/25 11:53:56;;;;;;;0.20;0.20;;;19.10;37.00;;;;;;8357542;28;20052;-54
2024/01/25 11:57:57;;;;;;;0.30;0.25;;;19.20;37.10;;;;;;8358690;28;20056;-52
2024/01/25 12:01:58;;;;;;;0.30;0.30;;;19.10;38.20;;;;;;8358922;28;20033;-54
2024/01/25 12:05:59;;;;;;;0.20;0.20;;;18.90;38.60;;;;;;8358889;28;20036;-54
2024/01/25 12:10:03;;;;;;;0.30;0.30;;;18.90;38.30;;;;;;8360538;28;20461;-53
2024/01/25 12:14:05;;;;;;;0.30;0.30;;;18.90;37.90;;;;;;8365190;28;20029;-52
2024/01/25 12:18:08;;;;;;;0.43;0.32;;;19.00;37.70;;;;;;8364462;28;20033;-54
2024/01/25 12:22:08;;;;;;;0.28;0.20;;;19.10;37.50;;;;;;8364576;28;20083;-53
2024/01/25 12:26:10;;;;;;;0.20;0.20;;;19.10;37.30;;;;;;8364261;28;20072;-54
2024/01/25 12:30:11;;;;;;;0.30;0.30;;;19.10;37.20;;;;;;8364267;28;20112;-53
2024/01/25 12:34:17;;;;;;;0.60;0.60;;;19.10;37.10;;;;;;8363916;28;20036;-53
2024/01/25 12:38:17;;;;;;;0.20;0.20;;;19.10;37.10;;;;;;8363960;28;20372;-53
2024/01/25 12:42:19;;;;;;;0.30;0.30;;;19.10;37.00;;;;;;8363682;28;20037;-52
2024/01/25 12:46:19;;;;;;;;;;;19.10;37.00;;;;;;8364481;28;20040;-53
2024/01/25 12:50:20;;;;;;;0.30;0.30;;;19.00;38.20;;;;;;8363499;28;20004;-54
2024/01/25 12:54:21;;;;;;;0.52;0.30;;;18.90;38.40;;;;;;8363313;28;20115;-53
2024/01/25 12:58:21;;;;;;;0.30;0.30;;;18.90;38.20;;;;;;8363333;28;20437;-53
2024/01/25 13:02:22;;;;;;;0.30;0.30;;;19.00;37.90;;;;;;8363318;28;20425;-55
2024/01/25 13:06:23;;;;;;;0.25;0.25;;;19.00;37.60;;;;;;8362955;28;20045;-54
2024/01/25 13:10:23;;;;;;;0.30;0.30;;;19.10;37.50;;;;;;8362948;28;20033;-53
2024/01/25 13:14:24;;;;;;;0.30;0.30;;;19.10;37.30;;;;;;8362655;28;20395;-52
2024/01/25 13:18:26;;;;;;;0.20;0.20;;;19.10;37.20;;;;;;8362885;28;20029;-54
2024/01/25 13:22:27;;;;;;;0.25;0.25;;;19.10;37.00;;;;;;8361577;28;20570;-53
2024/01/25 13:26:27;;;;;;;0.32;0.30;;;19.20;37.10;;;;;;8361054;28;20029;-54
2024/01/25 13:30:28;;;;;;;0.90;0.28;;;19.10;36.90;;;;;;8362422;28;20051;-52
2024/01/25 13:34:29;;;;;;;0.20;0.20;;;19.10;37.10;;;;;;8362248;28;20125;-54
2024/01/25 13:38:29;;;;;;;0.30;0.30;;;19.00;38.20;;;;;;8361930;28;20025;-52
2024/01/25 13:42:30;;;;;;;0.25;0.25;;;18.90;38.40;;;;;;8361848;28;20032;-54
2024/01/25 13:46:31;;;;;;;0.30;0.30;;;18.90;38.10;;;;;;8362185;28;20041;-53
2024/01/25 13:50:32;;;;;;;0.25;0.25;;;19.00;37.80;;;;;;8360334;28;20033;-54
2024/01/25 13:54:33;;;;;;;0.22;0.22;;;19.00;37.60;;;;;;8361577;28;20025;-49
2024/01/25 13:58:33;;;;;;;0.30;0.25;;;19.10;37.50;;;;;;8361464;28;20033;-52
2024/01/25 14:02:34;;;;;;;0.20;0.20;;;19.10;37.30;;;;;;8362347;28;20029;-53
2024/01/25 14:06:35;;;;;;;0.28;0.28;;;19.10;37.20;;;;;;8360995;28;20331;-53
2024/01/25 14:10:36;;;;;;;0.20;0.20;;;19.10;37.10;;;;;;8360956;28;20036;-55
2024/01/25 14:14:37;;;;;;;0.30;0.30;;;19.10;37.00;;;;;;8361153;28;20371;-54
2024/01/25 14:18:39;;;;;;;;;;;19.10;36.90;;;;;;8361542;28;20104;-53
2024/01/25 14:22:40;;;;;;;0.20;0.20;;;19.10;37.40;;;;;;8360672;28;19905;-54
2024/01/25 14:26:40;;;;;;;0.30;0.30;;;19.00;38.30;;;;;;8360546;28;20037;-54
2024/01/25 14:30:42;;;;;;;0.30;0.30;;;18.90;38.30;;;;;;8360660;28;20100;-51
2024/01/25 14:34:43;;;;;;;0.20;0.20;;;19.00;38.00;;;;;;8359929;28;20082;-52
2024/01/25 14:38:44;;;;;;;0.30;0.30;;;19.00;37.60;;;;;;8360698;28;20113;-53
2024/01/25 14:42:44;;;;;;;0.40;0.40;;;19.10;37.50;;;;;;8360341;28;20106;-53
2024/01/25 14:46:45;;;;;;;0.20;0.20;;;19.10;37.30;;;;;;8360076;28;20124;-53
2024/01/25 14:50:46;;;;;;;0.20;0.20;;;19.10;37.20;;;;;;8360075;28;20116;-54
2024/01/25 14:54:47;;;;;;;0.20;0.20;;;19.10;37.10;;;;;;8359833;28;20474;-54
2024/01/25 14:58:47;;;;;;;0.20;0.20;;;19.10;37.00;;;;;;8358703;28;20094;-54
2024/01/25 15:02:48;;;;;;;0.25;0.25;;;19.10;36.90;;;;;;8359905;28;20039;-53
2024/01/25 15:06:49;;;;;;;0.30;0.30;;;19.20;36.90;;;;;;8359666;28;20056;-54
2024/01/25 15:10:50;;;;;;;0.20;0.20;;;19.10;37.40;;;;;;8359770;28;20048;-53
2024/01/25 15:14:50;;;;;;;0.20;0.20;;;19.00;38.30;;;;;;8359580;28;20033;-53
2024/01/25 15:18:51;;;;;;;0.45;0.20;;;18.90;38.30;;;;;;8359346;28;20408;-54
2024/01/25 15:22:52;;;;;;;0.20;0.20;;;18.90;38.00;;;;;;8359660;28;20025;-54
2024/01/25 15:26:53;;;;;;;0.20;0.20;;;19.00;37.70;;;;;;8359850;28;20025;-54
2024/01/25 15:30:53;;;;;;;0.30;0.30;;;19.00;37.50;;;;;;8359149;28;20098;-54
2024/01/25 15:34:54;;;;;;;0.38;0.32;;;19.10;37.40;;;;;;8359274;28;20604;-52
2024/01/25 15:38:55;;;;;;;0.20;0.20;;;19.10;37.20;;;;;;8359462;28;20037;-53
2024/01/25 15:42:55;;;;;;;0.60;0.22;;;19.10;37.20;;;;;;8359031;28;20040;-53
2024/01/25 15:46:56;;;;;;;0.52;0.30;;;19.10;37.00;;;;;;8364378;28;20041;-54
2024/01/25 15:50:57;;;;;;;0.20;0.20;;;19.10;36.90;;;;;;8365605;28;20037;-53
2024/01/25 15:54:58;;;;;;;0.20;0.20;;;19.10;36.90;;;;;;8365361;28;20068;-52
2024/01/25 15:58:59;;;;;;;0.30;0.28;;;19.10;37.60;;;;;;8365168;28;20029;-52
2024/01/25 16:02:59;;;;;;;0.20;0.20;;;19.00;38.30;;;;;;8363888;28;20037;-54
2024/01/25 16:07:00;;;;;;;0.20;0.20;;;18.90;38.40;;;;;;8365012;28;20494;-55
2024/01/25 16:11:01;;;;;;;0.20;0.20;;;18.90;38.00;;;;;;8364866;28;20482;-55
2024/01/25 16:15:03;;;;;;;0.30;0.30;;;19.00;37.60;;;;;;8364743;28;20056;-54
2024/01/25 16:19:04;;;;;;;0.30;0.30;;;19.00;37.40;;;;;;8364709;28;20084;-51
2024/01/25 16:23:04;;;;;;;0.30;0.30;;;19.10;37.30;;;;;;8364413;28;20041;-54
2024/01/25 16:27:05;;;;;;;0.20;0.20;;;19.10;37.20;;;;;;8364223;28;20138;-54
2024/01/25 16:31:06;;;;;;;0.20;0.20;;;19.10;37.10;;;;;;8362775;28;20421;-54
2024/01/25 16:35:09;;;;;;;0.30;0.30;;;19.10;37.00;;;;;;8364548;28;20025;-52
2024/01/25 16:39:10;;;;;;;0.30;0.30;;;19.10;36.90;;;;;;8363967;28;20462;-54
2024/01/25 16:43:11;;;;;;;0.20;0.20;;;19.10;36.90;;;;;;8363561;28;20402;-54
2024/01/25 16:47:12;;;;;;;0.20;0.20;;;19.10;37.70;;;;;;8363682;28;20040;-53
2024/01/25 16:51:13;;;;;;;0.25;0.25;;;18.90;38.40;;;;;;8362220;28;20491;-54
2024/01/25 16:55:14;;;;;;;0.20;0.20;;;18.90;38.30;;;;;;8362998;28;20075;-54
2024/01/25 16:59:15;;;;;;;0.20;0.20;;;18.90;37.90;;;;;;8363160;28;20036;-53
2024/01/25 17:03:16;;;;;;;0.28;0.28;;;19.00;37.60;;;;;;8363174;28;20048;-55
2024/01/25 17:07:17;;;;;;;0.40;0.30;;;19.00;37.40;;;;;;8362889;28;20057;-52
2024/01/25 17:11:18;;;;;;;0.30;0.30;;;19.10;37.30;;;;;;8363626;28;20435;-52
2024/01/25 17:15:19;;;;;;;0.30;0.30;;;19.10;37.20;;;;;;8361606;28;20032;-53
2024/01/25 17:19:20;;;;;;;;;;;19.10;37.20;;;;;;8363122;28;20036;-53
2024/01/25 17:23:21;;;;;;;0.20;0.20;;;19.10;37.00;;;;;;8362452;28;19916;-54
2024/01/25 17:27:22;;;;;;;0.25;0.25;;;19.10;37.50;;;;;;8362338;28;20033;-48
2024/01/25 17:31:23;;;;;;;0.13;0.13;;;19.10;36.90;;;;;;8362255;28;20391;-49
2024/01/25 17:35:23;;;;;;;0.30;0.30;;;19.10;37.80;;;;;;8362204;28;20402;-48
2024/01/25 17:39:24;;;;;;;0.30;0.30;;;18.90;38.40;;;;;;8361917;28;20256;-48
2024/01/25 17:43:25;;;;;;;0.30;0.30;;;18.90;38.30;;;;;;8361785;28;20494;-48
2024/01/25 17:47:26;;;;;;;0.20;0.20;;;18.90;37.90;;;;;;8362068;28;20041;-49
2024/01/25 17:51:26;;;;;;;0.20;0.20;;;19.00;37.60;;;;;;8361575;28;20681;-48
2024/01/25 17:55:27;;;;;;;0.20;0.20;;;19.00;37.50;;;;;;8361466;28;20478;-50
2024/01/25 17:59:28;;;;;;;0.30;0.30;;;19.10;37.30;;;;;;8361672;28;20106;-50
2024/01/25 18:03:29;;;;;;;0.52;0.30;;;19.10;37.10;;;;;;8361425;28;20394;-50
2024/01/25 18:07:30;;;;;;;;;;;19.10;37.00;;;;;;8360823;28;20498;-49
2024/01/25 18:11:30;;;;;;;1.73;0.20;;;19.10;37.00;;;;;;8360881;28;20290;-51
2024/01/25 18:15:31;;;;;;;0.37;0.37;;;19.10;36.90;;;;;;8361052;28;20062;-49
2024/01/25 18:19:35;;;;;;;0.30;0.30;;;19.10;36.80;;;;;;8360751;28;20314;-49
2024/01/25 18:23:36;;;;;;;0.30;0.30;;;19.00;37.70;;;;;;8360825;28;20033;-50
2024/01/25 18:27:36;;;;;;;0.30;0.30;;;18.90;38.40;;;;;;8360753;28;20482;-49
2024/01/25 18:31:37;;;;;;;0.30;0.30;;;18.90;38.20;;;;;;8360679;28;20025;-50
2024/01/25 18:35:38;;;;;;;0.13;0.13;;;18.90;37.80;;;;;;8360307;28;20036;-51
2024/01/25 18:39:38;;;;;;;0.30;0.30;;;19.00;37.60;;;;;;8360432;28;20286;-51
2024/01/25 18:43:40;;;;;;;0.30;0.30;;;19.00;37.30;;;;;;8360253;28;20036;-51
2024/01/25 18:47:40;;;;;;;;;;;19.10;37.20;;;;;;8360288;28;20187;-49
2024/01/25 18:51:41;;;;;;;0.20;0.20;;;19.10;37.00;;;;;;8360490;28;19913;-50
2024/01/25 18:55:42;;;;;;;0.20;0.20;;;19.10;36.90;;;;;;8359916;28;20037;-49
2024/01/25 18:59:43;;;;;;;0.30;0.30;;;19.10;36.80;;;;;;8360226;28;20079;-49
2024/01/25 19:03:44;;;;;;;0.25;0.25;;;19.10;36.70;;;;;;8358654;28;20685;-51
2024/01/25 19:07:49;;;;;;;0.20;0.20;;;19.10;36.70;;;;;;8359635;28;20053;-49
2024/01/25 19:11:51;;;;;;;0.32;0.20;;;19.10;37.80;;;;;;8359655;28;20045;-52
2024/01/25 19:15:52;;;;;;;0.10;0.10;;;18.90;38.30;;;;;;8359465;28;20036;-48
2024/01/25 19:19:52;;;;;;;0.50;0.38;;;18.90;38.10;;;;;;8361528;28;20037;-48
2024/01/25 19:23:55;;;;;;;0.20;0.20;;;18.90;37.80;;;;;;8366261;28;20398;-48
2024/01/25 19:27:56;;;;;;;0.20;0.20;;;19.00;37.60;;;;;;8366135;28;20071;-47
2024/01/25 19:31:56;;;;;;;0.30;0.30;;;19.00;37.30;;;;;;8366022;28;20037;-48
2024/01/25 19:35:57;;;;;;;0.65;0.30;;;19.10;37.20;;;;;;8365870;28;20398;-48
2024/01/25 19:39:58;;;;;;;0.30;0.30;;;19.10;37.10;;;;;;8365687;28;20394;-48
2024/01/25 19:43:58;;;;;;;0.38;0.38;;;19.10;37.00;;;;;;8364956;28;20029;-48
2024/01/25 19:47:59;;;;;;;0.30;0.28;;;19.10;36.80;;;;;;8365947;28;20059;-50
2024/01/25 19:52:00;;;;;;;0.47;0.47;;;19.10;36.80;;;;;;8365479;28;20390;-51
2024/01/25 19:56:00;;;;;;;0.20;0.20;;;19.10;36.70;;;;;;8365416;28;20271;-51
2024/01/25 20:00:01;;;;;;;0.20;0.20;;;19.00;37.90;;;;;;8365367;28;20098;-54
2024/01/25 20:04:02;;;;;;;0.30;0.30;;;18.90;38.40;;;;;;8365191;28;20101;-53
2024/01/25 20:08:03;;;;;;;0.32;0.32;;;18.90;38.10;;;;;;8364850;28;20467;-50
2024/01/25 20:12:04;;;;;;;0.38;0.30;;;19.00;37.80;;;;;;8365064;28;20037;-51
2024/01/25 20:16:06;;;;;;;0.30;0.30;;;19.00;37.50;;;;;;8365209;28;20032;-50
2024/01/25 20:20:07;;;;;;;0.30;0.30;;;19.10;37.30;;;;;;8364565;28;20030;-52
2024/01/25 20:24:08;;;;;;;0.30;0.30;;;19.10;37.20;;;;;;8363209;28;20033;-52
2024/01/25 20:28:09;;;;;;;0.20;0.20;;;19.10;37.00;;;;;;8364277;28;20029;-51
2024/01/25 20:32:10;;;;;;;0.30;0.30;;;19.10;36.90;;;;;;8363891;28;20032;-53
2024/01/25 20:36:10;;;;;;;0.30;0.30;;;19.10;36.90;;;;;;8363915;28;20112;-53
2024/01/25 20:40:11;;;;;;;0.20;0.20;;;19.10;36.80;;;;;;8363925;28;20056;-52
2024/01/25 20:44:12;;;;;;;0.30;0.30;;;19.10;36.80;;;;;;8364161;28;20040;-53
2024/01/25 20:48:12;;;;;;;0.30;0.30;;;19.00;37.90;;;;;;8362249;28;20057;-50
2024/01/25 20:52:13;;;;;;;0.20;0.20;;;18.90;38.40;;;;;;8363730;28;20167;-51
2024/01/25 20:56:15;;;;;;;0.20;0.20;;;18.90;38.10;;;;;;8363654;28;20490;-49
2024/01/25 21:00:16;;;;;;;0.30;0.30;;;18.90;37.80;;;;;;8362055;28;20537;-49